createdAt,value
2017-10-09T00:01:31.682Z,7.20
2017-10-09T00:03:59.195Z,5.33
2017-10-09T00:06:26.699Z,5.37
2017-10-09T00:08:54.259Z,4.83
2017-10-09T00:11:21.759Z,4.03
2017-10-09T00:13:49.294Z,4.70
2017-10-09T00:16:16.799Z,5.20
2017-10-09T00:18:46.142Z,4.20
2017-10-09T00:21:13.665Z,4.67
2017-10-09T00:23:41.931Z,4.67
2017-10-09T00:26:09.446Z,4.70
2017-10-09T00:28:36.943Z,4.50
2017-10-09T00:31:04.454Z,6.57
2017-10-09T00:33:31.951Z,3.60
2017-10-09T00:35:59.462Z,4.10
2017-10-09T00:38:26.958Z,4.90
2017-10-09T00:40:54.476Z,4.73
2017-10-09T00:43:21.978Z,4.23
2017-10-09T00:45:49.500Z,4.10
2017-10-09T00:48:17.007Z,5.33
2017-10-09T00:50:44.522Z,3.93
2017-10-09T00:53:12.018Z,3.93
2017-10-09T00:55:39.536Z,4.60
2017-10-09T00:58:07.069Z,4.10
2017-10-09T01:00:34.592Z,4.47
2017-10-09T01:03:02.098Z,4.20
2017-10-09T01:05:29.619Z,4.90
2017-10-09T01:07:57.886Z,4.00
2017-10-09T01:10:26.182Z,4.57
2017-10-09T01:12:54.444Z,5.10
2017-10-09T01:15:21.958Z,4.50
2017-10-09T01:17:49.465Z,4.00
2017-10-09T01:20:17.762Z,3.93
2017-10-09T01:22:45.274Z,5.30
2017-10-09T01:25:12.775Z,4.13
2017-10-09T01:27:40.286Z,6.07
2017-10-09T01:30:08.617Z,5.43
2017-10-09T01:32:36.135Z,5.90
2017-10-09T01:35:04.398Z,7.50
2017-10-09T01:37:31.915Z,8.20
2017-10-09T01:39:59.414Z,7.83
2017-10-09T01:42:26.935Z,8.27
2017-10-09T01:44:54.435Z,7.30
2017-10-09T01:47:21.955Z,6.90
2017-10-09T01:49:49.466Z,7.27
2017-10-09T01:52:16.983Z,6.90
2017-10-09T01:54:44.898Z,5.77
2017-10-09T01:57:13.178Z,7.80
2017-10-09T01:59:41.439Z,8.00
2017-10-09T02:02:08.958Z,6.73
2017-10-09T02:04:36.463Z,10.40
2017-10-09T02:07:04.751Z,8.90
2017-10-09T02:09:33.018Z,7.87
2017-10-09T02:12:01.315Z,33.63
2017-10-09T02:14:28.874Z,23.90
2017-10-09T02:16:56.414Z,10.90
2017-10-09T02:19:24.682Z,7.70
2017-10-09T02:21:52.961Z,8.80
2017-10-09T02:24:21.239Z,7.83
2017-10-09T02:26:49.506Z,7.27
2017-10-09T02:29:17.018Z,6.80
2017-10-09T02:31:44.513Z,8.47
2017-10-09T02:34:12.031Z,7.27
2017-10-09T02:36:39.538Z,9.57
2017-10-09T02:39:07.051Z,8.83
2017-10-09T02:41:34.555Z,8.80
2017-10-09T02:44:02.853Z,9.30
2017-10-09T02:46:30.358Z,10.20
2017-10-09T02:48:57.874Z,9.40
2017-10-09T02:51:25.375Z,9.23
2017-10-09T02:53:52.895Z,9.80
2017-10-09T02:56:20.451Z,8.90
2017-10-09T02:58:47.970Z,10.97
2017-10-09T03:01:15.473Z,10.93
2017-10-09T03:03:43.006Z,8.17
2017-10-09T03:06:11.270Z,9.30
2017-10-09T03:08:39.559Z,8.87
2017-10-09T03:11:07.822Z,8.60
2017-10-09T03:13:35.339Z,9.50
2017-10-09T03:16:02.838Z,8.67
2017-10-09T03:18:31.126Z,9.87
2017-10-09T03:20:59.393Z,10.20
2017-10-09T03:23:44.527Z,11.30
2017-10-09T03:26:14.871Z,10.30
2017-10-09T03:28:45.375Z,11.93
2017-10-09T03:31:12.879Z,14.13
2017-10-09T03:33:41.155Z,14.03
2017-10-09T03:36:09.442Z,11.37
2017-10-09T03:38:37.710Z,10.87
2017-10-09T03:41:06.003Z,14.10
2017-10-09T03:43:33.512Z,13.40
2017-10-09T03:46:01.043Z,14.63
2017-10-09T03:48:28.550Z,12.17
2017-10-09T03:50:56.847Z,14.97
2017-10-09T03:53:24.359Z,14.93
2017-10-09T03:55:51.887Z,12.67
2017-10-09T03:58:19.398Z,11.40
2017-10-09T04:00:46.923Z,13.60
2017-10-09T04:03:14.427Z,11.70
2017-10-09T04:05:42.713Z,13.77
2017-10-09T04:08:10.219Z,13.87
2017-10-09T04:10:37.739Z,13.47
2017-10-09T04:13:05.247Z,17.13
2017-10-09T04:15:32.767Z,14.07
2017-10-09T04:18:00.272Z,16.27
2017-10-09T04:20:27.796Z,16.20
2017-10-09T04:22:55.303Z,14.73
2017-10-09T04:25:23.590Z,15.43
2017-10-09T04:27:51.865Z,14.83
2017-10-09T04:30:20.166Z,17.30
2017-10-09T04:32:47.679Z,15.00
2017-10-09T04:35:15.206Z,13.73
2017-10-09T04:37:42.711Z,15.50
2017-10-09T04:40:11.003Z,15.23
2017-10-09T04:42:38.507Z,14.90
2017-10-09T04:45:06.028Z,15.53
2017-10-09T04:47:33.535Z,15.83
2017-10-09T04:50:01.067Z,14.77
2017-10-09T04:52:28.574Z,16.60
2017-10-09T04:54:56.865Z,17.90
2017-10-09T04:57:24.379Z,16.37
2017-10-09T04:59:51.898Z,16.33
2017-10-09T05:02:19.411Z,15.77
2017-10-09T05:04:46.999Z,15.97
2017-10-09T05:07:14.572Z,17.47
2017-10-09T05:09:42.079Z,17.17
2017-10-09T05:12:09.673Z,20.50
2017-10-09T05:14:37.183Z,16.57
2017-10-09T05:17:04.703Z,17.33
2017-10-09T05:19:32.210Z,17.33
2017-10-09T05:21:59.810Z,19.87
2017-10-09T05:24:27.370Z,18.00
2017-10-09T05:26:54.892Z,19.47
2017-10-09T05:29:22.402Z,19.97
2017-10-09T05:31:49.927Z,18.20
2017-10-09T05:34:18.194Z,22.00
2017-10-09T05:36:46.479Z,20.83
2017-10-09T05:39:14.786Z,21.33
2017-10-09T05:41:42.310Z,21.00
2017-10-09T05:44:10.582Z,23.80
2017-10-09T05:46:38.886Z,20.53
2017-10-09T05:49:06.395Z,22.97
2017-10-09T05:51:34.013Z,23.27
2017-10-09T05:54:01.518Z,23.87
2017-10-09T05:56:29.114Z,26.90
2017-10-09T05:58:56.622Z,24.60
2017-10-09T06:01:24.146Z,26.93
2017-10-09T06:03:51.691Z,25.93
2017-10-09T06:06:19.250Z,24.40
2017-10-09T06:08:46.810Z,30.73
2017-10-09T06:11:14.330Z,25.07
2017-10-09T06:13:41.923Z,25.03
2017-10-09T06:16:09.447Z,25.50
2017-10-09T06:18:37.078Z,25.33
2017-10-09T06:21:04.598Z,24.93
2017-10-09T06:23:32.162Z,27.43
2017-10-09T06:25:59.702Z,25.23
2017-10-09T06:28:27.970Z,24.17
2017-10-09T06:30:56.247Z,28.37
2017-10-09T06:33:24.540Z,25.40
2017-10-09T06:35:52.810Z,28.33
2017-10-09T06:38:21.103Z,24.93
2017-10-09T06:40:48.607Z,24.90
2017-10-09T06:43:16.130Z,23.57
2017-10-09T06:45:43.688Z,25.87
2017-10-09T06:48:11.210Z,23.93
2017-10-09T06:50:39.479Z,23.23
2017-10-09T06:53:07.003Z,26.23
2017-10-09T06:55:34.508Z,25.00
2017-10-09T06:58:02.800Z,23.03
2017-10-09T07:00:30.360Z,24.50
2017-10-09T07:02:57.887Z,24.70
2017-10-09T07:05:25.666Z,25.60
2017-10-09T07:07:53.955Z,27.17
2017-10-09T07:10:21.458Z,23.67
2017-10-09T07:12:48.994Z,24.40
2017-10-09T07:15:16.494Z,24.30
2017-10-09T07:17:44.026Z,21.40
2017-10-09T07:20:11.561Z,23.97
2017-10-09T07:22:39.062Z,25.60
2017-10-09T07:25:07.207Z,21.17
2017-10-09T07:27:34.714Z,20.47
2017-10-09T07:30:03.004Z,24.20
2017-10-09T07:32:30.515Z,21.90
2017-10-09T07:34:58.039Z,20.67
2017-10-09T07:37:25.596Z,26.27
2017-10-09T07:39:53.122Z,20.30
2017-10-09T07:42:21.399Z,18.57
2017-10-09T07:44:49.694Z,19.70
2017-10-09T07:47:17.207Z,19.10
2017-10-09T07:49:44.735Z,21.03
2017-10-09T07:52:12.243Z,19.40
2017-10-09T07:54:39.831Z,20.50
2017-10-09T07:57:07.347Z,19.13
2017-10-09T07:59:34.875Z,17.20
2017-10-09T08:02:02.386Z,21.20
2017-10-09T08:04:30.673Z,24.03
2017-10-09T08:06:58.954Z,21.20
2017-10-09T08:09:26.474Z,21.83
2017-10-09T08:11:54.074Z,21.67
2017-10-09T08:14:21.603Z,21.03
2017-10-09T08:16:49.110Z,21.07
2017-10-09T08:19:16.635Z,21.30
2017-10-09T08:21:44.907Z,20.10
2017-10-09T08:24:13.199Z,18.73
2017-10-09T08:26:40.768Z,18.30
2017-10-09T08:29:08.291Z,18.70
2017-10-09T08:31:36.566Z,19.77
2017-10-09T08:34:04.799Z,19.57
2017-10-09T08:36:32.306Z,18.10
2017-10-09T08:39:00.587Z,16.53
2017-10-09T08:41:28.879Z,13.50
2017-10-09T08:43:56.387Z,14.80
2017-10-09T08:46:24.011Z,15.10
2017-10-09T08:48:51.524Z,11.63
2017-10-09T08:51:19.114Z,13.30
2017-10-09T08:53:46.627Z,13.03
2017-10-09T08:56:14.163Z,11.40
2017-10-09T08:58:41.668Z,10.70
2017-10-09T09:01:09.962Z,11.00
2017-10-09T09:03:37.472Z,9.90
2017-10-09T09:06:04.999Z,11.43
2017-10-09T09:08:32.507Z,10.67
2017-10-09T09:11:00.031Z,10.37
2017-10-09T09:13:27.530Z,9.27
2017-10-09T09:15:55.842Z,11.23
2017-10-09T09:18:23.357Z,9.37
2017-10-09T09:20:51.667Z,11.47
2017-10-09T09:23:19.181Z,11.80
2017-10-09T09:25:46.703Z,11.90
2017-10-09T09:28:14.211Z,11.60
2017-10-09T09:30:41.737Z,14.50
2017-10-09T09:33:09.243Z,13.10
2017-10-09T09:35:37.518Z,12.53
2017-10-09T09:38:05.806Z,14.43
2017-10-09T09:40:33.315Z,13.73
2017-10-09T09:43:00.839Z,12.03
2017-10-09T09:45:28.383Z,11.90
2017-10-09T09:47:55.911Z,12.73
2017-10-09T09:50:23.415Z,14.13
2017-10-09T09:52:50.939Z,14.80
2017-10-09T09:55:19.214Z,12.57
2017-10-09T09:57:47.506Z,14.03
2017-10-09T10:00:15.080Z,13.07
2017-10-09T10:02:42.616Z,12.50
2017-10-09T10:05:10.895Z,12.03
2017-10-09T10:07:38.546Z,11.70
2017-10-09T10:10:06.838Z,9.90
2017-10-09T10:12:34.403Z,10.77
2017-10-09T10:15:01.906Z,9.47
2017-10-09T10:17:29.529Z,9.63
2017-10-09T10:19:57.026Z,8.63
2017-10-09T10:22:24.637Z,9.40
2017-10-09T10:24:52.138Z,9.60
2017-10-09T10:27:19.650Z,8.07
2017-10-09T10:29:47.154Z,10.00
2017-10-09T10:32:14.667Z,8.33
2017-10-09T10:34:42.171Z,7.80
2017-10-09T10:37:09.687Z,8.03
2017-10-09T10:39:37.186Z,8.17
2017-10-09T10:42:04.691Z,9.03
2017-10-09T10:44:32.215Z,8.97
2017-10-09T10:46:59.723Z,7.93
2017-10-09T10:49:27.275Z,9.10
2017-10-09T10:51:54.831Z,10.60
2017-10-09T10:54:22.359Z,15.17
2017-10-09T10:56:49.942Z,9.60
2017-10-09T10:59:17.459Z,7.70
2017-10-09T11:01:45.908Z,7.40
2017-10-09T11:04:13.431Z,10.40
2017-10-09T11:06:41.819Z,7.77
2017-10-09T11:09:09.335Z,8.20
2017-10-09T11:11:37.044Z,8.63
2017-10-09T11:14:04.603Z,7.90
2017-10-09T11:16:32.431Z,8.47
2017-10-09T11:18:59.960Z,8.50
2017-10-09T11:21:27.454Z,9.30
2017-10-09T11:23:55.750Z,7.40
2017-10-09T11:26:23.254Z,9.10
2017-10-09T11:28:50.771Z,8.17
2017-10-09T11:31:18.270Z,8.80
2017-10-09T11:33:45.791Z,8.40
2017-10-09T11:36:13.294Z,10.57
2017-10-09T11:38:40.816Z,10.03
2017-10-09T11:41:08.315Z,9.77
2017-10-09T11:43:36.548Z,8.93
2017-10-09T11:46:04.060Z,12.17
2017-10-09T11:48:32.175Z,11.07
2017-10-09T11:50:59.699Z,8.80
2017-10-09T11:53:27.994Z,9.17
2017-10-09T11:55:55.558Z,9.40
2017-10-09T11:58:23.071Z,9.83
2017-10-09T12:00:50.588Z,8.87
2017-10-09T12:03:18.091Z,10.43
2017-10-09T12:05:45.686Z,9.37
2017-10-09T12:08:13.510Z,8.30
2017-10-09T12:10:41.031Z,8.70
2017-10-09T12:13:08.579Z,8.53
2017-10-09T12:15:36.099Z,7.23
2017-10-09T12:18:03.612Z,8.10
2017-10-09T12:20:31.146Z,9.27
2017-10-09T12:22:58.647Z,9.93
2017-10-09T12:25:26.167Z,9.73
2017-10-09T12:27:53.675Z,7.63
2017-10-09T12:30:21.204Z,7.33
2017-10-09T12:32:48.714Z,7.47
2017-10-09T12:35:17.025Z,7.60
2017-10-09T12:37:44.531Z,7.20
2017-10-09T12:40:12.059Z,7.73
2017-10-09T12:42:39.563Z,8.00
2017-10-09T12:45:07.855Z,6.87
2017-10-09T12:47:36.132Z,6.60
2017-10-09T12:50:04.636Z,7.17
2017-10-09T12:52:32.182Z,8.20
2017-10-09T12:54:59.704Z,8.73
2017-10-09T12:57:27.207Z,10.87
2017-10-09T12:59:54.756Z,8.80
2017-10-09T13:02:22.259Z,8.77
2017-10-09T13:04:49.779Z,7.83
2017-10-09T13:07:17.292Z,7.20
2017-10-09T13:09:45.427Z,8.70
2017-10-09T13:12:12.946Z,7.70
2017-10-09T13:14:41.219Z,7.90
2017-10-09T13:17:09.507Z,8.97
2017-10-09T13:19:37.069Z,8.53
2017-10-09T13:22:04.595Z,7.93
2017-10-09T13:24:32.191Z,7.97
2017-10-09T13:26:59.711Z,8.30
2017-10-09T13:29:27.216Z,7.47
2017-10-09T13:31:54.771Z,7.90
2017-10-09T13:34:22.281Z,6.97
2017-10-09T13:36:50.596Z,8.00
2017-10-09T13:39:18.104Z,7.80
2017-10-09T13:41:45.627Z,9.17
2017-10-09T13:44:13.129Z,8.17
2017-10-09T13:46:40.648Z,7.70
2017-10-09T13:49:08.150Z,6.97
2017-10-09T13:51:35.747Z,7.20
2017-10-09T13:54:03.307Z,7.77
2017-10-09T13:56:30.827Z,7.77
2017-10-09T13:58:58.339Z,7.50
2017-10-09T14:01:25.982Z,6.60
2017-10-09T14:03:53.487Z,8.50
2017-10-09T14:06:21.099Z,6.70
2017-10-09T14:08:48.621Z,5.97
2017-10-09T14:11:16.221Z,6.83
2017-10-09T14:13:43.779Z,4.80
2017-10-09T14:16:11.284Z,5.80
2017-10-09T14:18:38.804Z,5.10
2017-10-09T14:21:06.306Z,4.80
2017-10-09T14:23:33.910Z,3.83
2017-10-09T14:26:01.415Z,5.07
2017-10-09T14:28:28.948Z,4.90
2017-10-09T14:30:56.494Z,3.07
2017-10-09T14:40:46.507Z,3.83
2017-10-09T14:43:14.036Z,3.97
2017-10-09T14:45:41.541Z,3.77
2017-10-09T14:48:09.063Z,4.20
2017-10-09T14:50:37.351Z,3.43
2017-10-09T14:53:04.872Z,3.40
2017-10-09T14:55:32.387Z,2.90
2017-10-09T14:57:59.944Z,3.67
2017-10-09T15:00:27.463Z,4.30
2017-10-09T15:02:55.068Z,3.40
2017-10-09T15:05:22.595Z,3.70
2017-10-09T15:07:50.891Z,4.53
2017-10-09T15:10:19.480Z,3.80
2017-10-09T15:12:46.986Z,4.43
2017-10-09T15:15:14.499Z,3.43
2017-10-09T15:17:42.009Z,3.20
2017-10-09T15:20:09.531Z,3.70
2017-10-09T15:22:37.031Z,4.50
2017-10-09T15:25:05.320Z,3.70
2017-10-09T15:27:33.587Z,5.37
2017-10-09T15:30:01.111Z,4.87
2017-10-09T15:32:28.622Z,5.13
2017-10-09T15:34:57.011Z,4.57
2017-10-09T15:37:24.513Z,6.20
2017-10-09T15:39:52.132Z,3.87
2017-10-09T15:42:19.701Z,4.90
2017-10-09T15:44:47.199Z,3.87
2017-10-09T15:47:14.809Z,5.70
2017-10-09T15:49:42.316Z,5.33
2017-10-09T15:52:09.836Z,5.03
2017-10-09T15:54:37.442Z,3.77
2017-10-09T15:57:04.910Z,4.30
2017-10-09T15:59:32.422Z,4.83
2017-10-09T16:01:59.935Z,5.07
2017-10-09T16:04:28.215Z,5.40
2017-10-09T16:06:56.590Z,7.30
2017-10-09T16:09:24.867Z,5.20
2017-10-09T16:11:53.883Z,4.47
2017-10-09T16:14:22.175Z,5.67
2017-10-09T16:16:49.723Z,6.00
2017-10-09T16:19:17.227Z,5.30
2017-10-09T16:21:44.828Z,4.50
2017-10-09T16:24:12.332Z,5.63
2017-10-09T16:26:39.851Z,5.43
2017-10-09T16:29:07.356Z,5.87
2017-10-09T16:31:34.995Z,5.63
2017-10-09T16:34:02.495Z,5.87
2017-10-09T16:36:30.084Z,4.90
2017-10-09T16:38:57.655Z,5.80
2017-10-09T16:41:25.303Z,4.37
2017-10-09T16:43:52.819Z,5.60
2017-10-09T16:46:20.323Z,6.63
2017-10-09T16:48:47.897Z,5.77
2017-10-09T16:51:15.404Z,7.40
2017-10-09T16:53:42.924Z,5.40
2017-10-09T16:56:10.445Z,5.50
2017-10-09T16:58:38.229Z,5.47
2017-10-09T17:01:05.727Z,4.33
2017-10-09T17:03:33.248Z,5.50
2017-10-09T17:06:00.795Z,5.87
2017-10-09T17:08:28.316Z,6.27
2017-10-09T17:10:55.820Z,5.37
2017-10-09T17:13:23.339Z,6.20
2017-10-09T17:15:51.637Z,5.43
2017-10-09T17:18:19.162Z,4.37
2017-10-09T17:20:46.759Z,6.57
2017-10-09T17:23:14.280Z,6.57
2017-10-09T17:25:43.345Z,6.70
2017-10-09T17:28:10.877Z,6.77
2017-10-09T17:30:38.386Z,8.17
2017-10-09T17:33:05.907Z,7.37
2017-10-09T17:35:33.411Z,6.90
2017-10-09T17:38:00.936Z,7.03
2017-10-09T17:40:28.461Z,7.50
2017-10-09T17:42:55.983Z,7.97
2017-10-09T17:45:23.486Z,8.17
2017-10-09T17:47:51.038Z,6.80
2017-10-09T17:50:18.554Z,7.00
2017-10-09T17:52:46.061Z,7.33
2017-10-09T17:55:13.583Z,5.30
2017-10-09T17:57:41.855Z,6.20
2017-10-09T18:00:10.155Z,6.40
2017-10-09T18:02:37.659Z,6.50
2017-10-09T18:05:05.184Z,5.73
2017-10-09T18:07:32.692Z,4.73
2017-10-09T18:10:01.021Z,7.80
2017-10-09T18:12:28.572Z,5.00
2017-10-09T18:14:56.091Z,6.03
2017-10-09T18:17:23.594Z,6.67
2017-10-09T18:19:51.111Z,7.30
2017-10-09T18:22:18.619Z,4.90
2017-10-09T18:24:46.132Z,6.60
2017-10-09T18:27:14.443Z,5.67
2017-10-09T18:29:41.999Z,4.80
2017-10-09T18:32:09.499Z,6.07
2017-10-09T18:34:37.024Z,7.40
2017-10-09T18:37:04.551Z,6.13
2017-10-09T18:39:32.999Z,7.47
2017-10-09T18:42:00.503Z,8.93
2017-10-09T18:44:28.008Z,7.83
2017-10-09T18:46:55.528Z,7.57
2017-10-09T18:49:23.084Z,5.00
2017-10-09T18:51:50.607Z,6.60
2017-10-09T18:54:18.888Z,5.67
2017-10-09T18:56:47.180Z,6.17
2017-10-09T18:59:14.694Z,6.20
2017-10-09T19:01:42.215Z,5.47
2017-10-09T19:04:09.716Z,5.10
2017-10-09T19:06:37.236Z,5.40
2017-10-09T19:09:05.144Z,6.00
2017-10-09T19:11:32.664Z,6.40
2017-10-09T19:14:00.170Z,5.90
2017-10-09T19:16:27.686Z,6.37
2017-10-09T19:18:55.192Z,8.40
2017-10-09T19:21:23.498Z,7.53
2017-10-09T19:23:51.004Z,6.17
2017-10-09T19:26:20.030Z,6.73
2017-10-09T19:28:48.292Z,5.87
2017-10-09T19:31:15.811Z,6.60
2017-10-09T19:33:43.339Z,6.90
2017-10-09T19:36:10.899Z,6.93
2017-10-09T19:38:38.418Z,6.00
2017-10-09T19:41:06.014Z,6.57
2017-10-09T19:43:33.576Z,7.13
2017-10-09T19:46:01.099Z,7.33
2017-10-09T19:48:28.599Z,7.93
2017-10-09T19:50:56.139Z,8.40
2017-10-09T19:53:24.409Z,6.90
2017-10-09T19:55:52.679Z,9.37
2017-10-09T19:58:20.968Z,7.93
2017-10-09T20:00:48.540Z,6.63
2017-10-09T20:03:16.111Z,7.67
2017-10-09T20:05:43.610Z,9.17
2017-10-09T20:08:11.128Z,8.53
2017-10-09T20:10:38.676Z,7.73
2017-10-09T20:13:06.191Z,8.00
2017-10-09T20:15:33.800Z,7.00
2017-10-09T20:18:01.324Z,7.10
2017-10-09T20:20:29.747Z,8.57
2017-10-09T20:22:57.278Z,7.90
2017-10-09T20:25:24.783Z,7.30
2017-10-09T20:27:52.313Z,8.47
2017-10-09T20:30:19.829Z,7.63
2017-10-09T20:32:48.138Z,8.37
2017-10-09T20:35:15.648Z,7.80
2017-10-09T20:37:43.163Z,7.73
2017-10-09T20:40:10.678Z,7.67
2017-10-09T20:42:38.980Z,7.73
2017-10-09T20:45:07.334Z,9.77
2017-10-09T20:47:35.641Z,7.83
2017-10-09T20:50:03.162Z,7.10
2017-10-09T20:52:30.704Z,6.93
2017-10-09T20:54:59.725Z,7.43
2017-10-09T20:57:28.026Z,7.30
2017-10-09T20:59:55.593Z,8.50
2017-10-09T21:02:23.123Z,8.03
2017-10-09T21:04:51.912Z,7.20
2017-10-09T21:07:20.196Z,6.73
2017-10-09T21:09:48.500Z,7.83
2017-10-09T21:12:16.038Z,8.80
2017-10-09T21:14:43.612Z,7.50
2017-10-09T21:17:11.141Z,8.73
2017-10-09T21:19:39.459Z,7.07
2017-10-09T21:22:06.995Z,7.23
2017-10-09T21:24:34.539Z,12.33
2017-10-09T21:27:02.842Z,6.80
2017-10-09T21:29:30.372Z,7.57
2017-10-09T21:31:58.656Z,7.30
2017-10-09T21:34:26.199Z,7.60
2017-10-09T21:36:54.872Z,7.77
2017-10-09T21:39:22.413Z,7.00
2017-10-09T21:41:49.929Z,6.70
2017-10-09T21:44:17.510Z,6.70
2017-10-09T21:46:45.009Z,7.27
2017-10-09T21:49:13.316Z,7.30
2017-10-09T21:51:40.832Z,6.03
2017-10-09T21:54:08.431Z,5.47
2017-10-09T21:56:36.011Z,6.40
2017-10-09T21:59:03.533Z,5.53
2017-10-09T22:01:31.829Z,6.63
2017-10-09T22:03:59.345Z,6.57
2017-10-09T22:06:26.889Z,6.90
2017-10-09T22:08:54.413Z,91.77
2017-10-09T22:11:21.961Z,18.17
2017-10-09T22:13:49.497Z,7.60
2017-10-09T22:16:17.811Z,6.10
2017-10-09T22:18:45.361Z,6.23
2017-10-09T22:21:12.891Z,6.17
2017-10-09T22:23:41.170Z,4.70
2017-10-09T22:26:09.463Z,5.40
2017-10-09T22:28:36.981Z,4.90
2017-10-09T22:31:04.508Z,4.97
2017-10-09T22:33:32.046Z,5.60
2017-10-09T22:35:59.562Z,5.00
2017-10-09T22:38:27.065Z,5.80
2017-10-09T22:40:54.615Z,5.20
2017-10-09T22:43:22.114Z,5.30
2017-10-09T22:45:49.727Z,4.70
2017-10-09T22:48:17.233Z,5.80
2017-10-09T22:50:44.752Z,5.40
2017-10-09T22:53:12.510Z,5.00
2017-10-09T22:55:40.014Z,6.57
2017-10-09T22:58:07.535Z,5.50
2017-10-09T23:00:35.044Z,4.90
2017-10-09T23:03:02.563Z,5.50
2017-10-09T23:05:30.103Z,5.40
2017-10-09T23:07:57.619Z,5.03
2017-10-09T23:10:25.119Z,6.33
2017-10-09T23:12:52.677Z,6.53
2017-10-09T23:15:20.444Z,5.90
2017-10-09T23:17:47.995Z,4.47
2017-10-09T23:20:15.495Z,5.30
2017-10-09T23:22:43.020Z,5.43
2017-10-09T23:25:10.532Z,5.70
2017-10-09T23:27:38.055Z,5.30
2017-10-09T23:30:05.560Z,6.20
2017-10-09T23:32:33.851Z,6.47
2017-10-09T23:35:02.123Z,5.83
2017-10-09T23:37:30.407Z,6.07
2017-10-09T23:39:58.705Z,6.00
2017-10-09T23:42:26.242Z,6.03
2017-10-09T23:44:54.507Z,5.40
2017-10-09T23:47:22.799Z,6.33
2017-10-09T23:49:50.559Z,5.73
2017-10-09T23:52:18.082Z,5.63
2017-10-09T23:54:45.588Z,5.50
2017-10-09T23:57:13.155Z,5.60
2017-10-09T23:59:40.665Z,5.17
